createdAt,value
2022-09-15T00:01:00.970Z,3.25
2022-09-15T00:03:28.543Z,2.85
2022-09-15T00:05:55.809Z,3.03
2022-09-15T00:08:23.477Z,2.83
2022-09-15T00:10:52.988Z,2.38
2022-09-15T00:13:21.071Z,2.50
2022-09-15T00:15:48.694Z,2.33
2022-09-15T00:18:16.112Z,2.33
2022-09-15T00:20:45.232Z,2.00
2022-09-15T00:23:14.220Z,2.03
2022-09-15T00:25:46.798Z,2.08
2022-09-15T00:28:15.810Z,2.00
2022-09-15T00:30:44.868Z,2.30
2022-09-15T00:33:12.951Z,1.80
2022-09-15T00:35:41.411Z,2.00
2022-09-15T00:38:10.303Z,1.90
2022-09-15T00:40:44.983Z,2.08
2022-09-15T00:43:12.902Z,2.00
2022-09-15T00:45:40.696Z,2.10
2022-09-15T00:48:12.429Z,2.25
2022-09-15T00:50:41.132Z,2.10
2022-09-15T00:53:09.953Z,1.60
2022-09-15T00:55:47.505Z,2.05
2022-09-15T00:58:21.919Z,2.42
2022-09-15T01:01:03.271Z,3.40
2022-09-15T01:03:33.069Z,2.55
2022-09-15T01:06:05.783Z,2.30
2022-09-15T01:08:36.168Z,2.15
2022-09-15T01:11:03.726Z,2.60
2022-09-15T01:13:30.955Z,2.97
2022-09-15T01:19:10.377Z,3.40
2022-09-15T01:21:43.439Z,4.20
2022-09-15T01:24:16.892Z,3.85
2022-09-15T01:27:30.450Z,3.58
2022-09-15T01:30:04.138Z,2.95
2022-09-15T01:32:53.148Z,2.20
2022-09-15T01:35:57.826Z,2.70
2022-09-15T01:38:33.306Z,2.90
2022-09-15T01:41:05.873Z,2.78
2022-09-15T01:43:39.364Z,2.80
2022-09-15T01:46:07.465Z,3.13
2022-09-15T01:48:35.866Z,3.10
2022-09-15T01:51:03.971Z,2.97
2022-09-15T01:53:31.361Z,2.70
2022-09-15T01:56:02.802Z,2.60
2022-09-15T01:58:29.995Z,1.92
2022-09-15T02:01:00.870Z,2.00
2022-09-15T02:03:35.051Z,1.75
2022-09-15T02:06:07.237Z,2.00
2022-09-15T02:08:47.724Z,1.83
2022-09-15T02:11:21.823Z,3.55
2022-09-15T02:14:28.328Z,3.25
2022-09-15T02:16:56.061Z,4.57
2022-09-15T02:19:41.202Z,6.50
2022-09-15T02:22:17.568Z,10.20
2022-09-15T02:24:50.102Z,9.45
2022-09-15T02:27:24.072Z,9.88
2022-09-15T02:29:54.058Z,10.40
2022-09-15T02:32:23.498Z,10.75
2022-09-15T02:34:51.695Z,10.68
2022-09-15T02:37:21.319Z,11.82
2022-09-15T02:39:51.730Z,13.88
2022-09-15T02:42:26.829Z,12.57
2022-09-15T02:44:54.130Z,13.38
2022-09-15T02:47:21.617Z,12.75
2022-09-15T02:49:48.866Z,12.18
2022-09-15T02:52:16.400Z,10.70
2022-09-15T02:54:43.716Z,10.43
2022-09-15T02:57:10.910Z,11.18
2022-09-15T03:00:13.308Z,10.70
2022-09-15T03:02:41.846Z,9.18
2022-09-15T03:05:10.656Z,9.52
2022-09-15T03:07:38.512Z,10.23
2022-09-15T03:10:07.644Z,8.38
2022-09-15T03:12:54.243Z,8.27
2022-09-15T03:15:23.625Z,7.57
2022-09-15T03:17:50.908Z,6.30
2022-09-15T03:20:23.200Z,6.80
2022-09-15T03:22:50.417Z,5.57
2022-09-15T03:25:18.565Z,4.93
2022-09-15T03:27:46.256Z,5.43
2022-09-15T03:30:14.059Z,4.88
2022-09-15T03:32:41.313Z,5.35
2022-09-15T03:35:09.418Z,5.03
2022-09-15T03:37:37.205Z,5.57
2022-09-15T03:40:05.232Z,5.13
2022-09-15T03:42:32.694Z,4.60
2022-09-15T03:44:59.926Z,5.18
2022-09-15T03:47:27.197Z,5.05
2022-09-15T03:49:55.312Z,5.03
2022-09-15T03:52:23.882Z,6.90
2022-09-15T03:54:51.068Z,6.40
2022-09-15T03:57:18.312Z,5.40
2022-09-15T03:59:45.480Z,5.55
2022-09-15T04:02:12.900Z,6.05
2022-09-15T04:04:40.095Z,5.90
2022-09-15T04:07:08.818Z,6.90
2022-09-15T04:09:37.338Z,6.57
2022-09-15T04:12:04.753Z,6.70
2022-09-15T04:14:31.983Z,6.68
2022-09-15T04:16:59.372Z,7.07
2022-09-15T04:19:26.640Z,7.43
2022-09-15T04:21:53.900Z,6.82
2022-09-15T04:24:21.107Z,6.30
2022-09-15T04:26:48.551Z,7.80
2022-09-15T04:29:17.466Z,7.43
2022-09-15T04:31:45.175Z,8.90
2022-09-15T04:34:12.405Z,7.53
2022-09-15T04:36:39.657Z,7.55
2022-09-15T04:39:06.968Z,9.00
2022-09-15T04:41:34.456Z,9.07
2022-09-15T04:44:02.382Z,9.32
2022-09-15T04:46:29.780Z,10.60
2022-09-15T04:48:57.416Z,10.90
2022-09-15T04:51:24.960Z,9.10
2022-09-15T04:53:52.386Z,9.70
2022-09-15T04:56:22.074Z,9.70
2022-09-15T04:59:03.214Z,9.95
2022-09-15T05:01:33.880Z,11.88
2022-09-15T05:04:05.990Z,12.35
2022-09-15T05:06:34.703Z,11.57
2022-09-15T05:09:06.522Z,11.88
2022-09-15T05:11:37.723Z,12.40
2022-09-15T05:14:05.057Z,10.50
2022-09-15T05:16:32.422Z,12.05
2022-09-15T05:19:02.963Z,11.65
2022-09-15T05:21:30.815Z,11.73
2022-09-15T05:23:58.234Z,11.82
2022-09-15T05:26:28.201Z,11.23
2022-09-15T05:28:56.563Z,12.50
2022-09-15T05:31:36.243Z,11.93
2022-09-15T05:34:05.589Z,13.32
2022-09-15T05:36:33.613Z,12.93
2022-09-15T05:39:01.844Z,12.25
2022-09-15T05:41:29.427Z,12.18
2022-09-15T05:43:57.764Z,10.90
2022-09-15T05:46:29.084Z,11.77
2022-09-15T05:48:58.175Z,12.38
2022-09-15T05:51:25.484Z,12.60
2022-09-15T05:53:52.779Z,13.60
2022-09-15T05:56:20.242Z,13.07
2022-09-15T05:58:48.245Z,12.45
2022-09-15T06:01:18.030Z,12.00
2022-09-15T06:03:45.793Z,14.43
2022-09-15T06:06:13.541Z,15.68
2022-09-15T06:08:44.415Z,16.10
2022-09-15T06:11:23.833Z,16.00
2022-09-15T06:13:51.095Z,16.17
2022-09-15T06:16:21.308Z,16.30
2022-09-15T06:21:21.136Z,18.00
2022-09-15T06:23:56.095Z,18.20
2022-09-15T06:26:23.545Z,18.05
2022-09-15T06:28:55.559Z,16.95
2022-09-15T06:31:23.795Z,18.13
2022-09-15T06:33:54.111Z,18.08
2022-09-15T06:36:23.075Z,16.90
2022-09-15T06:38:51.679Z,18.55
2022-09-15T06:41:18.994Z,19.67
2022-09-15T06:43:46.878Z,20.45
2022-09-15T06:46:17.163Z,19.38
2022-09-15T06:48:48.163Z,20.60
2022-09-15T06:51:17.496Z,18.85
2022-09-15T06:53:45.585Z,20.77
2022-09-15T06:56:15.049Z,21.33
2022-09-15T06:58:43.075Z,20.85
2022-09-15T07:01:12.526Z,23.27
2022-09-15T07:03:42.566Z,21.87
2022-09-15T07:06:12.064Z,21.98
2022-09-15T07:08:40.447Z,23.35
2022-09-15T07:11:09.636Z,22.88
2022-09-15T07:13:37.379Z,21.65
2022-09-15T07:16:06.596Z,21.88
2022-09-15T07:18:35.507Z,20.92
2022-09-15T07:21:10.455Z,20.65
2022-09-15T07:23:37.776Z,22.13
2022-09-15T07:26:15.405Z,22.88
2022-09-15T07:28:44.853Z,22.17
2022-09-15T07:31:15.395Z,20.67
2022-09-15T07:33:45.770Z,20.50
2022-09-15T07:36:13.277Z,19.23
2022-09-15T07:38:43.060Z,18.10
2022-09-15T07:41:25.160Z,18.50
2022-09-15T07:43:54.506Z,19.55
2022-09-15T07:46:23.318Z,18.93
2022-09-15T07:48:53.345Z,19.70
2022-09-15T07:53:48.534Z,19.10
2022-09-15T07:56:19.690Z,20.42
2022-09-15T07:58:47.697Z,17.60
2022-09-15T08:01:16.292Z,19.77
2022-09-15T08:03:46.250Z,18.15
2022-09-15T08:06:14.410Z,17.95
2022-09-15T08:08:44.039Z,17.45
2022-09-15T08:11:18.405Z,17.77
2022-09-15T08:13:47.704Z,16.25
2022-09-15T08:16:18.185Z,15.75
2022-09-15T08:18:45.896Z,14.73
2022-09-15T08:21:22.642Z,12.98
2022-09-15T08:23:51.825Z,15.15
2022-09-15T08:26:19.138Z,14.05
2022-09-15T08:28:46.424Z,12.13
2022-09-15T08:31:14.505Z,11.18
2022-09-15T08:33:45.693Z,11.10
2022-09-15T08:36:13.805Z,11.40
2022-09-15T08:38:44.510Z,10.32
2022-09-15T08:41:20.425Z,10.50
2022-09-15T08:43:50.039Z,11.13
2022-09-15T08:46:22.709Z,10.30
2022-09-15T08:48:58.623Z,9.18
2022-09-15T08:51:50.110Z,10.00
2022-09-15T08:54:21.462Z,10.45
2022-09-15T08:56:49.131Z,9.00
2022-09-15T08:59:17.593Z,6.80
2022-09-15T09:01:54.766Z,5.90
2022-09-15T09:04:43.465Z,6.50
2022-09-15T09:07:26.131Z,5.72
2022-09-15T09:09:57.525Z,5.30
2022-09-15T09:12:43.209Z,5.30
2022-09-15T09:15:35.021Z,4.10
2022-09-15T09:18:11.414Z,6.13
2022-09-15T09:20:41.397Z,5.63
2022-09-15T09:23:13.074Z,4.82
2022-09-15T09:25:42.097Z,5.22
2022-09-15T09:28:39.035Z,4.50
2022-09-15T09:31:08.311Z,4.95
2022-09-15T09:33:47.701Z,4.77
2022-09-15T09:36:15.572Z,4.40
2022-09-15T09:38:45.675Z,3.78
2022-09-15T09:41:15.665Z,4.53
2022-09-15T09:43:44.489Z,4.85
2022-09-15T09:46:14.980Z,5.22
2022-09-15T09:49:03.760Z,4.18
2022-09-15T09:51:39.757Z,4.72
2022-09-15T09:54:11.962Z,4.88
2022-09-15T09:56:40.305Z,5.40
2022-09-15T09:59:39.526Z,5.35
2022-09-15T10:02:18.208Z,5.75
2022-09-15T10:04:53.876Z,6.53
2022-09-15T10:07:27.445Z,5.65
2022-09-15T10:09:57.439Z,6.32
2022-09-15T10:12:32.961Z,5.95
2022-09-15T10:15:03.798Z,4.90
2022-09-15T10:17:41.015Z,4.47
2022-09-15T10:20:28.763Z,4.40
2022-09-15T10:23:29.583Z,4.50
2022-09-15T10:26:18.243Z,4.82
2022-09-15T10:28:45.955Z,3.63
2022-09-15T10:31:28.082Z,3.30
2022-09-15T10:33:55.374Z,5.25
2022-09-15T10:36:24.523Z,5.20
2022-09-15T10:39:21.041Z,7.57
2022-09-15T10:42:04.459Z,11.13
2022-09-15T10:44:34.192Z,11.68
2022-09-15T10:47:53.609Z,13.02
2022-09-15T10:50:27.511Z,4.23
2022-09-15T10:53:39.590Z,5.97
2022-09-15T10:56:35.220Z,5.22
2022-09-15T10:59:18.778Z,2.70
2022-09-15T11:02:16.995Z,3.08
2022-09-15T11:04:53.434Z,3.50
2022-09-15T11:07:23.622Z,3.75
2022-09-15T11:12:48.523Z,3.83
2022-09-15T11:15:43.322Z,3.00
2022-09-15T11:18:13.720Z,2.85
2022-09-15T11:21:02.388Z,2.55
2022-09-15T11:23:54.756Z,2.67
2022-09-15T11:26:28.088Z,2.67
2022-09-15T11:29:16.421Z,2.55
2022-09-15T11:31:44.990Z,4.38
2022-09-15T11:34:22.460Z,5.75
2022-09-15T11:36:55.123Z,5.85
2022-09-15T11:39:24.051Z,5.82
2022-09-15T11:41:57.479Z,5.55
2022-09-15T11:44:28.258Z,4.43
2022-09-15T11:47:23.275Z,3.80
2022-09-15T11:49:58.219Z,2.85
2022-09-15T11:52:46.815Z,4.60
2022-09-15T11:55:22.801Z,2.67
2022-09-15T11:58:01.356Z,2.50
2022-09-15T12:00:28.686Z,2.97
2022-09-15T12:03:21.043Z,3.92
2022-09-15T12:05:54.590Z,2.80
2022-09-15T12:08:24.990Z,5.13
2022-09-15T12:10:55.420Z,3.20
2022-09-15T12:13:25.696Z,4.65
2022-09-15T12:15:53.504Z,5.43
2022-09-15T12:18:47.683Z,5.55
2022-09-15T12:21:35.910Z,8.82
2022-09-15T12:24:22.116Z,4.88
2022-09-15T12:26:50.284Z,6.63
2022-09-15T12:29:26.643Z,5.30
2022-09-15T12:32:20.000Z,5.25
2022-09-15T12:35:16.417Z,7.85
2022-09-15T12:37:47.259Z,6.47
2022-09-15T12:40:34.548Z,3.75
2022-09-15T12:43:03.898Z,4.47
2022-09-15T12:45:38.610Z,6.68
2022-09-15T12:48:12.122Z,8.65
2022-09-15T12:50:41.030Z,4.68
2022-09-15T12:53:23.448Z,3.72
2022-09-15T12:55:55.921Z,3.17
2022-09-15T12:58:49.793Z,2.58
2022-09-15T13:01:23.377Z,3.75
2022-09-15T13:03:50.953Z,3.20
2022-09-15T13:06:20.975Z,3.17
2022-09-15T13:11:36.882Z,2.10
2022-09-15T13:14:04.249Z,2.88
2022-09-15T13:16:54.985Z,2.75
2022-09-15T13:19:27.213Z,2.60
2022-09-15T13:22:00.016Z,2.47
2022-09-15T13:24:36.032Z,2.58
2022-09-15T13:27:05.621Z,2.65
2022-09-15T13:29:43.409Z,2.60
2022-09-15T13:32:45.103Z,2.58
2022-09-15T13:35:27.681Z,2.15
2022-09-15T13:38:25.001Z,2.22
2022-09-15T13:41:32.838Z,2.42
2022-09-15T13:44:07.247Z,2.75
2022-09-15T13:47:08.788Z,2.67
2022-09-15T13:49:47.737Z,2.80
2022-09-15T13:52:22.473Z,2.38
2022-09-15T13:55:28.001Z,2.92
2022-09-15T14:00:55.766Z,3.28
2022-09-15T14:03:33.880Z,2.85
2022-09-15T14:06:01.330Z,2.80
2022-09-15T14:08:32.448Z,3.72
2022-09-15T14:11:03.597Z,3.67
2022-09-15T14:13:31.453Z,3.33
2022-09-15T14:16:28.026Z,4.13
2022-09-15T14:18:57.783Z,4.45
2022-09-15T14:21:28.230Z,4.25
2022-09-15T14:23:57.878Z,4.10
2022-09-15T14:26:27.104Z,4.65
2022-09-15T14:29:01.156Z,4.53
2022-09-15T14:31:34.708Z,4.65
2022-09-15T14:34:04.049Z,4.47
2022-09-15T14:36:33.199Z,3.97
2022-09-15T14:39:16.386Z,4.35
2022-09-15T14:41:44.288Z,4.20
2022-09-15T14:45:54.993Z,4.32
2022-09-15T14:47:25.522Z,4.18
2022-09-15T14:50:10.176Z,3.88
2022-09-15T14:52:43.241Z,5.25
2022-09-15T14:55:24.475Z,4.00
2022-09-15T14:58:30.057Z,4.47
2022-09-15T15:01:11.744Z,4.30
2022-09-15T15:03:57.955Z,4.90
2022-09-15T15:06:29.369Z,4.93
2022-09-15T15:08:58.326Z,4.72
2022-09-15T15:11:26.014Z,4.93
2022-09-15T15:13:53.857Z,4.40
2022-09-15T15:16:24.558Z,4.20
2022-09-15T15:18:53.524Z,4.32
2022-09-15T15:21:42.317Z,4.20
2022-09-15T15:24:17.392Z,4.43
2022-09-15T15:26:46.203Z,4.15
2022-09-15T15:29:38.365Z,4.28
2022-09-15T15:32:13.629Z,3.80
2022-09-15T15:34:48.820Z,3.35
2022-09-15T15:37:26.441Z,3.00
2022-09-15T15:39:55.558Z,2.75
2022-09-15T15:42:24.116Z,2.90
2022-09-15T15:45:09.885Z,2.92
2022-09-15T15:47:37.413Z,2.83
2022-09-15T15:50:13.592Z,2.95
2022-09-15T15:52:42.018Z,2.70
2022-09-15T15:55:13.782Z,3.22
2022-09-15T15:57:41.230Z,3.35
2022-09-15T16:00:30.530Z,3.13
2022-09-15T16:02:57.852Z,3.53
2022-09-15T16:05:29.512Z,3.60
2022-09-15T16:08:00.659Z,3.20
2022-09-15T16:10:30.343Z,2.80
2022-09-15T16:12:57.691Z,3.00
2022-09-15T16:15:25.088Z,3.00
2022-09-15T16:17:52.258Z,3.15
2022-09-15T16:20:19.825Z,2.60
2022-09-15T16:22:47.084Z,2.78
2022-09-15T16:25:28.088Z,3.22
2022-09-15T16:27:55.799Z,3.05
2022-09-15T16:30:23.043Z,2.63
2022-09-15T16:32:50.412Z,2.83
2022-09-15T16:35:22.674Z,2.80
2022-09-15T16:37:50.019Z,2.45
2022-09-15T16:40:18.072Z,2.58
2022-09-15T16:42:47.264Z,3.17
2022-09-15T16:45:22.925Z,3.17
2022-09-15T16:47:50.113Z,3.30
2022-09-15T16:50:17.476Z,3.05
2022-09-15T16:52:44.791Z,3.60
2022-09-15T16:55:23.379Z,3.38
2022-09-15T16:57:51.017Z,3.97
2022-09-15T17:00:18.302Z,3.38
2022-09-15T17:02:48.938Z,3.85
2022-09-15T17:05:26.182Z,4.20
2022-09-15T17:07:53.428Z,3.53
2022-09-15T17:10:20.930Z,3.72
2022-09-15T17:12:48.630Z,3.90
2022-09-15T17:15:20.217Z,4.05
2022-09-15T17:17:48.061Z,3.97
2022-09-15T17:20:15.922Z,4.30
2022-09-15T17:22:43.334Z,3.60
2022-09-15T17:25:31.359Z,4.40
2022-09-15T17:27:59.190Z,5.22
2022-09-15T17:30:29.120Z,4.68
2022-09-15T17:33:04.298Z,4.43
2022-09-15T17:35:37.482Z,4.22
2022-09-15T17:38:06.470Z,4.38
2022-09-15T17:40:34.844Z,4.53
2022-09-15T17:43:02.541Z,5.35
2022-09-15T17:45:36.613Z,4.78
2022-09-15T17:48:04.648Z,4.43
2022-09-15T17:50:33.893Z,6.10
2022-09-15T17:53:01.268Z,5.70
2022-09-15T17:55:33.457Z,8.35
2022-09-15T17:58:02.631Z,5.22
2022-09-15T18:00:33.352Z,4.20
2022-09-15T18:03:02.849Z,5.28
2022-09-15T18:05:32.969Z,5.50
2022-09-15T18:08:03.394Z,7.35
2022-09-15T18:10:32.052Z,4.38
2022-09-15T18:12:59.338Z,6.30
2022-09-15T18:15:29.234Z,6.65
2022-09-15T18:18:03.845Z,7.75
2022-09-15T18:20:33.127Z,4.20
2022-09-15T18:23:00.470Z,4.23
2022-09-15T18:25:33.724Z,3.88
2022-09-15T18:28:01.883Z,4.70
2022-09-15T18:30:36.454Z,4.13
2022-09-15T18:33:03.947Z,4.57
2022-09-15T18:35:31.352Z,5.25
2022-09-15T18:37:59.784Z,4.10
2022-09-15T18:40:28.288Z,4.32
2022-09-15T18:42:56.574Z,3.80
2022-09-15T18:45:23.966Z,3.90
2022-09-15T18:47:52.310Z,3.20
2022-09-15T18:50:21.780Z,3.35
2022-09-15T18:52:49.374Z,3.10
2022-09-15T18:55:20.195Z,2.95
2022-09-15T18:57:48.146Z,3.33
2022-09-15T19:00:17.993Z,3.13
2022-09-15T19:02:45.446Z,3.13
2022-09-15T19:05:16.483Z,2.70
2022-09-15T19:07:44.527Z,3.05
2022-09-15T19:10:13.161Z,3.25
2022-09-15T19:12:40.810Z,3.72
2022-09-15T19:15:12.143Z,3.63
2022-09-15T19:17:40.576Z,2.85
2022-09-15T19:20:09.870Z,3.10
2022-09-15T19:22:38.003Z,3.28
2022-09-15T19:25:06.576Z,3.00
2022-09-15T19:27:33.967Z,2.90
2022-09-15T19:30:01.396Z,3.10
2022-09-15T19:32:28.879Z,3.20
2022-09-15T19:34:56.112Z,3.35
2022-09-15T19:37:23.592Z,2.92
2022-09-15T19:39:51.282Z,2.70
2022-09-15T19:42:18.534Z,2.90
2022-09-15T19:44:47.731Z,3.13
2022-09-15T19:47:15.379Z,3.30
2022-09-15T19:49:43.088Z,2.72
2022-09-15T19:52:10.554Z,3.50
2022-09-15T19:54:37.863Z,2.97
2022-09-15T19:57:05.356Z,2.75
2022-09-15T19:59:32.609Z,3.42
2022-09-15T20:02:00.804Z,2.67
2022-09-15T20:07:13.785Z,3.97
2022-09-15T20:09:40.988Z,3.53
2022-09-15T20:12:08.163Z,3.53
2022-09-15T20:14:35.539Z,4.40
2022-09-15T20:17:02.699Z,4.63
2022-09-15T20:19:29.896Z,4.50
2022-09-15T20:21:57.630Z,3.55
2022-09-15T20:24:25.040Z,2.75
2022-09-15T20:26:52.447Z,3.10
2022-09-15T20:29:20.237Z,2.47
2022-09-15T20:31:48.087Z,2.50
2022-09-15T20:34:15.841Z,3.42
2022-09-15T20:36:43.765Z,3.10
2022-09-15T20:39:14.550Z,3.00
2022-09-15T20:41:45.170Z,2.70
2022-09-15T20:44:13.092Z,2.90
2022-09-15T20:46:40.698Z,2.80
2022-09-15T20:49:08.951Z,2.80
2022-09-15T20:51:36.203Z,2.50
2022-09-15T20:54:04.971Z,2.63
2022-09-15T20:56:34.992Z,2.55
2022-09-15T21:01:34.530Z,2.40
2022-09-15T21:04:02.281Z,2.28
2022-09-15T21:06:29.507Z,2.83
2022-09-15T21:08:57.811Z,1.80
2022-09-15T21:11:29.640Z,1.83
2022-09-15T21:13:57.771Z,1.90
2022-09-15T21:16:27.419Z,2.00
2022-09-15T21:18:56.387Z,2.25
2022-09-15T21:21:25.866Z,1.85
2022-09-15T21:23:55.066Z,2.30
2022-09-15T21:26:24.816Z,2.60
2022-09-15T21:28:53.745Z,1.90
2022-09-15T21:31:22.842Z,2.10
2022-09-15T21:33:51.374Z,1.90
2022-09-15T21:36:24.611Z,1.77
2022-09-15T21:38:53.886Z,2.03
2022-09-15T21:41:22.922Z,2.20
2022-09-15T21:43:55.376Z,1.98
2022-09-15T21:46:24.364Z,1.77
2022-09-15T21:48:51.809Z,1.98
2022-09-15T21:51:24.329Z,2.30
2022-09-15T21:53:56.751Z,2.08
2022-09-15T21:56:24.703Z,2.30
2022-09-15T21:58:51.942Z,1.63
2022-09-15T22:01:20.232Z,2.10
2022-09-15T22:03:51.985Z,2.05
2022-09-15T22:06:21.415Z,2.35
2022-09-15T22:09:45.271Z,2.10
2022-09-15T22:12:18.819Z,2.03
2022-09-15T22:14:46.011Z,2.08
2022-09-15T22:17:13.906Z,2.00
2022-09-15T22:19:41.179Z,1.90
2022-09-15T22:22:08.846Z,2.33
2022-09-15T22:24:36.131Z,1.80
2022-09-15T22:27:03.390Z,1.77
2022-09-15T22:29:30.534Z,2.13
2022-09-15T22:31:57.865Z,1.90
2022-09-15T22:34:25.054Z,1.90
2022-09-15T22:36:52.221Z,2.20
2022-09-15T22:39:19.360Z,1.88
2022-09-15T22:41:46.674Z,1.80
2022-09-15T22:44:18.865Z,2.17
2022-09-15T22:46:46.377Z,2.20
2022-09-15T22:49:13.592Z,1.98
2022-09-15T22:51:40.891Z,2.25
2022-09-15T22:54:08.102Z,2.10
2022-09-15T22:56:35.334Z,2.00
2022-09-15T22:59:02.795Z,2.00
2022-09-15T23:01:31.097Z,1.88
2022-09-15T23:04:00.886Z,1.88
2022-09-15T23:06:30.796Z,2.42
2022-09-15T23:08:59.979Z,2.20
2022-09-15T23:11:28.532Z,1.80
2022-09-15T23:13:56.418Z,2.00
2022-09-15T23:16:25.008Z,2.40
2022-09-15T23:18:53.095Z,2.17
2022-09-15T23:21:20.954Z,2.05
2022-09-15T23:23:49.247Z,2.03
2022-09-15T23:26:18.365Z,2.40
2022-09-15T23:28:45.861Z,2.00
2022-09-15T23:31:13.695Z,2.63
2022-09-15T23:33:41.600Z,2.40
2022-09-15T23:36:11.676Z,2.38
2022-09-15T23:38:41.040Z,2.50
2022-09-15T23:41:08.967Z,2.43
2022-09-15T23:43:36.309Z,2.33
2022-09-15T23:46:04.570Z,2.47
2022-09-15T23:48:32.534Z,2.50
2022-09-15T23:51:00.021Z,2.80
2022-09-15T23:53:27.397Z,2.58
2022-09-15T23:55:54.676Z,2.28
2022-09-15T23:58:21.900Z,2.60
